createdAt,value
2022-08-26T00:01:38.887Z,17.52
2022-08-26T00:04:05.802Z,17.45
2022-08-26T00:06:33.568Z,17.41
2022-08-26T00:09:00.854Z,17.39
2022-08-26T00:11:27.922Z,17.40
2022-08-26T00:13:55.852Z,17.36
2022-08-26T00:16:25.063Z,17.34
2022-08-26T00:18:53.106Z,17.31
2022-08-26T00:21:20.105Z,17.27
2022-08-26T00:23:46.942Z,17.23
2022-08-26T00:26:14.511Z,17.21
2022-08-26T00:28:41.470Z,17.18
2022-08-26T00:31:11.018Z,17.14
2022-08-26T00:33:38.351Z,17.15
2022-08-26T00:36:05.651Z,17.15
2022-08-26T00:38:32.445Z,17.09
2022-08-26T00:40:59.100Z,17.01
2022-08-26T00:43:27.046Z,16.84
2022-08-26T00:46:04.934Z,16.68
2022-08-26T00:48:33.985Z,16.56
2022-08-26T00:51:12.150Z,16.42
2022-08-26T00:53:45.906Z,16.28
2022-08-26T00:56:36.287Z,16.15
2022-08-26T00:59:07.775Z,15.98
2022-08-26T01:01:35.559Z,15.85
2022-08-26T01:04:02.780Z,15.74
2022-08-26T01:09:39.731Z,15.51
2022-08-26T01:12:06.530Z,15.49
2022-08-26T01:14:36.747Z,15.48
2022-08-26T01:17:07.180Z,15.48
2022-08-26T01:19:51.071Z,15.52
2022-08-26T01:22:40.995Z,15.55
2022-08-26T01:25:08.180Z,15.55
2022-08-26T01:27:35.524Z,15.55
2022-08-26T01:30:03.629Z,15.58
2022-08-26T01:32:33.196Z,15.63
2022-08-26T01:35:00.980Z,15.65
2022-08-26T01:37:34.060Z,15.61
2022-08-26T01:40:00.998Z,15.56
2022-08-26T01:42:28.516Z,15.49
2022-08-26T01:45:01.957Z,15.41
2022-08-26T01:47:31.616Z,15.35
2022-08-26T01:50:01.681Z,15.32
2022-08-26T01:52:31.670Z,15.33
2022-08-26T01:54:59.881Z,15.34
2022-08-26T01:57:27.593Z,15.38
2022-08-26T01:59:58.894Z,15.37
2022-08-26T02:02:26.393Z,15.37
2022-08-26T02:04:59.856Z,15.36
2022-08-26T02:07:27.983Z,15.33
2022-08-26T02:09:55.209Z,15.39
2022-08-26T02:12:22.267Z,15.44
2022-08-26T02:14:53.763Z,15.46
2022-08-26T02:17:24.758Z,15.43
2022-08-26T02:19:51.804Z,15.37
2022-08-26T02:22:21.581Z,15.30
2022-08-26T02:25:00.820Z,15.25
2022-08-26T02:27:32.976Z,15.19
2022-08-26T02:30:22.861Z,15.08
2022-08-26T02:32:51.764Z,15.01
2022-08-26T02:35:20.645Z,14.94
2022-08-26T02:37:48.148Z,14.92
2022-08-26T02:40:18.809Z,14.89
2022-08-26T02:42:45.559Z,14.89
2022-08-26T02:45:13.219Z,14.85
2022-08-26T02:47:43.620Z,14.82
2022-08-26T02:50:10.307Z,14.76
2022-08-26T02:52:37.397Z,14.66
2022-08-26T02:55:05.031Z,14.64
2022-08-26T02:57:31.659Z,14.55
2022-08-26T03:00:00.829Z,14.48
2022-08-26T03:02:29.278Z,14.41
2022-08-26T03:04:57.306Z,14.31
2022-08-26T03:10:34.528Z,14.07
2022-08-26T03:13:01.592Z,13.99
2022-08-26T03:15:32.498Z,13.95
2022-08-26T03:17:59.441Z,13.91
2022-08-26T03:20:26.274Z,13.86
2022-08-26T03:22:53.463Z,13.84
2022-08-26T03:25:23.213Z,13.85
2022-08-26T03:27:50.387Z,13.84
2022-08-26T03:30:35.933Z,13.84
2022-08-26T03:33:02.887Z,13.82
2022-08-26T03:35:30.387Z,13.80
2022-08-26T03:37:56.996Z,13.74
2022-08-26T03:40:24.856Z,13.71
2022-08-26T03:42:55.744Z,13.70
2022-08-26T03:45:22.407Z,13.68
2022-08-26T03:47:49.650Z,13.68
2022-08-26T03:50:22.983Z,13.69
2022-08-26T03:52:53.578Z,13.71
2022-08-26T03:55:24.950Z,13.70
2022-08-26T03:57:52.448Z,13.72
2022-08-26T04:00:20.594Z,13.78
2022-08-26T04:02:51.208Z,13.81
2022-08-26T04:05:21.852Z,13.89
2022-08-26T04:07:49.442Z,13.98
2022-08-26T04:10:19.407Z,14.11
2022-08-26T04:12:47.115Z,14.17
2022-08-26T04:15:16.561Z,14.27
2022-08-26T04:17:44.896Z,14.40
2022-08-26T04:20:18.145Z,14.55
2022-08-26T04:22:46.084Z,14.67
2022-08-26T04:25:13.697Z,14.82
2022-08-26T04:27:40.247Z,14.96
2022-08-26T04:30:08.050Z,15.07
2022-08-26T04:32:35.502Z,15.26
2022-08-26T04:35:03.424Z,15.42
2022-08-26T04:37:31.380Z,15.58
2022-08-26T04:39:59.221Z,15.80
2022-08-26T04:42:26.013Z,15.93
2022-08-26T04:44:52.789Z,16.04
2022-08-26T04:47:19.387Z,16.12
2022-08-26T04:49:45.999Z,16.25
2022-08-26T04:52:12.773Z,16.35
2022-08-26T04:54:39.466Z,16.46
2022-08-26T04:57:08.712Z,16.59
2022-08-26T04:59:39.187Z,16.72
2022-08-26T05:02:07.093Z,16.85
2022-08-26T05:04:34.269Z,16.99
2022-08-26T05:07:03.190Z,17.28
2022-08-26T05:11:38.489Z,18.12
2022-08-26T05:14:06.231Z,18.75
2022-08-26T05:16:32.799Z,19.30
2022-08-26T05:18:59.630Z,19.84
2022-08-26T05:21:29.160Z,20.38
2022-08-26T05:23:56.510Z,20.92
2022-08-26T05:26:26.458Z,21.40
2022-08-26T05:28:56.942Z,21.79
2022-08-26T05:31:27.330Z,22.17
2022-08-26T05:33:56.443Z,22.51
2022-08-26T05:36:28.706Z,22.90
2022-08-26T05:38:56.625Z,23.23
2022-08-26T05:41:34.398Z,23.61
2022-08-26T05:44:06.079Z,23.96
2022-08-26T05:46:33.920Z,24.31
2022-08-26T05:49:06.016Z,24.48
2022-08-26T05:51:40.967Z,24.72
2022-08-26T05:54:07.756Z,25.03
2022-08-26T05:56:37.677Z,25.32
2022-08-26T05:59:05.318Z,25.69
2022-08-26T06:01:35.459Z,26.05
2022-08-26T06:04:02.923Z,26.44
2022-08-26T06:06:32.318Z,26.77
2022-08-26T06:09:00.844Z,27.05
2022-08-26T06:11:29.688Z,27.31
2022-08-26T06:14:03.567Z,27.79
2022-08-26T06:16:33.761Z,28.24
2022-08-26T06:19:03.138Z,28.82
2022-08-26T06:21:33.438Z,29.38
2022-08-26T06:24:27.365Z,29.96
2022-08-26T06:27:04.477Z,30.58
2022-08-26T06:29:33.698Z,31.13
2022-08-26T06:32:01.988Z,31.54
2022-08-26T06:34:29.763Z,31.80
2022-08-26T06:37:02.775Z,32.18
2022-08-26T06:39:31.621Z,32.65
2022-08-26T06:42:06.106Z,33.03
2022-08-26T06:44:33.297Z,33.25
2022-08-26T06:47:00.029Z,33.52
2022-08-26T06:49:27.645Z,33.58
2022-08-26T06:51:58.554Z,33.49
2022-08-26T06:54:27.727Z,33.58
2022-08-26T06:56:56.995Z,33.63
2022-08-26T06:59:24.428Z,33.99
2022-08-26T07:01:52.466Z,34.12
2022-08-26T07:04:22.199Z,34.21
2022-08-26T07:06:50.468Z,34.34
2022-08-26T07:12:39.027Z,35.00
2022-08-26T07:15:06.075Z,35.21
2022-08-26T07:17:34.438Z,35.24
2022-08-26T07:20:03.528Z,34.98
2022-08-26T07:22:31.580Z,35.37
2022-08-26T07:24:58.152Z,35.50
2022-08-26T07:27:26.806Z,35.47
2022-08-26T07:29:57.717Z,35.43
2022-08-26T07:32:24.876Z,35.31
2022-08-26T07:34:52.242Z,35.36
2022-08-26T07:37:19.209Z,35.28
2022-08-26T07:39:47.544Z,35.05
2022-08-26T07:42:17.249Z,34.90
2022-08-26T07:44:45.994Z,34.83
2022-08-26T07:47:24.666Z,35.12
2022-08-26T07:49:54.892Z,35.55
2022-08-26T07:52:26.359Z,35.62
2022-08-26T07:54:53.975Z,35.62
2022-08-26T07:57:22.098Z,35.51
2022-08-26T07:59:55.175Z,35.73
2022-08-26T08:02:22.298Z,35.74
2022-08-26T08:04:49.171Z,35.82
2022-08-26T08:07:15.850Z,35.53
2022-08-26T08:09:42.453Z,35.86
2022-08-26T08:12:13.990Z,36.28
2022-08-26T08:14:42.300Z,36.49
2022-08-26T08:17:13.396Z,36.31
2022-08-26T08:19:40.892Z,36.07
2022-08-26T08:22:17.500Z,36.04
2022-08-26T08:24:49.980Z,36.01
2022-08-26T08:27:23.701Z,36.13
2022-08-26T08:29:54.341Z,36.03
2022-08-26T08:32:22.837Z,35.89
2022-08-26T08:34:49.571Z,36.30
2022-08-26T08:37:16.448Z,36.46
2022-08-26T08:39:43.703Z,36.26
2022-08-26T08:42:31.864Z,36.44
2022-08-26T08:45:02.800Z,36.55
2022-08-26T08:47:43.031Z,36.84
2022-08-26T08:50:21.808Z,36.86
2022-08-26T08:52:59.088Z,36.68
2022-08-26T08:55:36.306Z,36.62
2022-08-26T08:58:08.060Z,36.31
2022-08-26T09:00:46.603Z,36.14
2022-08-26T09:03:57.878Z,36.15
2022-08-26T09:06:30.460Z,36.03
2022-08-26T09:08:58.032Z,35.86
2022-08-26T09:13:32.543Z,35.44
2022-08-26T09:16:13.900Z,35.59
2022-08-26T09:18:52.475Z,35.72
2022-08-26T09:21:23.398Z,35.85
2022-08-26T09:23:53.495Z,35.66
2022-08-26T09:26:29.171Z,35.81
2022-08-26T09:28:59.235Z,35.99
2022-08-26T09:31:31.986Z,35.83
2022-08-26T09:34:07.904Z,35.38
2022-08-26T09:36:47.521Z,35.02
2022-08-26T09:39:34.299Z,34.82
2022-08-26T09:42:11.823Z,34.61
2022-08-26T09:45:00.972Z,34.43
2022-08-26T09:47:32.033Z,34.35
2022-08-26T09:50:10.992Z,34.23
2022-08-26T09:52:40.592Z,33.89
2022-08-26T09:55:12.738Z,33.64
2022-08-26T09:57:53.055Z,33.44
2022-08-26T10:00:35.240Z,33.27
2022-08-26T10:03:09.895Z,32.91
2022-08-26T10:05:39.976Z,32.68
2022-08-26T10:08:26.671Z,32.63
2022-08-26T10:10:55.482Z,32.58
2022-08-26T10:13:33.246Z,32.57
2022-08-26T10:16:10.843Z,32.37
2022-08-26T10:18:43.712Z,32.15
2022-08-26T10:21:21.339Z,31.99
2022-08-26T10:23:52.139Z,31.87
2022-08-26T10:26:43.138Z,31.73
2022-08-26T10:29:23.029Z,31.50
2022-08-26T10:31:52.160Z,31.33
2022-08-26T10:34:19.348Z,31.37
2022-08-26T10:37:14.292Z,31.50
2022-08-26T10:39:57.217Z,31.41
2022-08-26T10:42:37.535Z,31.40
2022-08-26T10:45:15.242Z,31.32
2022-08-26T10:47:59.032Z,31.23
2022-08-26T10:50:38.516Z,31.11
2022-08-26T10:53:13.313Z,30.98
2022-08-26T10:55:48.232Z,31.02
2022-08-26T10:58:42.746Z,31.04
2022-08-26T11:01:47.134Z,30.95
2022-08-26T11:04:47.507Z,30.88
2022-08-26T11:07:40.487Z,30.88
2022-08-26T11:10:22.633Z,30.87
2022-08-26T11:14:42.101Z,30.73
2022-08-26T11:17:46.363Z,30.53
2022-08-26T11:20:36.902Z,30.51
2022-08-26T11:23:12.615Z,30.61
2022-08-26T11:25:59.769Z,30.62
2022-08-26T11:28:40.222Z,30.55
2022-08-26T11:31:32.841Z,30.48
2022-08-26T11:34:07.199Z,30.42
2022-08-26T11:36:39.401Z,30.39
2022-08-26T11:39:52.669Z,30.28
2022-08-26T11:42:49.513Z,30.27
2022-08-26T11:45:27.440Z,30.24
2022-08-26T11:47:57.202Z,30.15
2022-08-26T11:50:28.824Z,30.10
2022-08-26T11:53:02.431Z,30.11
2022-08-26T11:55:30.801Z,30.02
2022-08-26T11:58:01.028Z,29.98
2022-08-26T12:00:33.441Z,30.04
2022-08-26T12:03:05.587Z,30.00
2022-08-26T12:05:38.416Z,30.00
2022-08-26T12:08:13.795Z,30.08
2022-08-26T12:10:43.424Z,30.06
2022-08-26T12:13:26.308Z,30.07
2022-08-26T12:15:58.324Z,30.10
2022-08-26T12:18:30.364Z,30.06
2022-08-26T12:21:00.594Z,29.97
2022-08-26T12:23:50.012Z,29.84
2022-08-26T12:26:31.192Z,29.80
2022-08-26T12:29:10.787Z,29.79
2022-08-26T12:32:17.777Z,29.71
2022-08-26T12:34:47.354Z,29.72
2022-08-26T12:37:15.692Z,29.64
2022-08-26T12:39:44.773Z,29.71
2022-08-26T12:42:17.212Z,29.70
2022-08-26T12:44:53.328Z,29.66
2022-08-26T12:47:43.428Z,29.61
2022-08-26T12:50:33.271Z,29.50
2022-08-26T12:53:11.044Z,29.51
2022-08-26T12:55:50.814Z,29.56
2022-08-26T12:58:26.054Z,29.53
2022-08-26T13:01:18.662Z,29.50
2022-08-26T13:03:46.351Z,29.54
2022-08-26T13:06:29.816Z,29.53
2022-08-26T13:08:56.370Z,29.53
2022-08-26T13:11:32.572Z,29.51
2022-08-26T13:15:37.142Z,29.48
2022-08-26T13:18:04.095Z,29.47
2022-08-26T13:20:31.006Z,29.48
2022-08-26T13:22:58.771Z,29.47
2022-08-26T13:25:26.022Z,29.43
2022-08-26T13:27:52.835Z,29.42
2022-08-26T13:30:19.929Z,29.39
2022-08-26T13:32:46.566Z,29.35
2022-08-26T13:35:13.309Z,29.36
2022-08-26T13:37:39.960Z,29.34
2022-08-26T13:40:09.639Z,29.26
2022-08-26T13:42:36.505Z,29.23
2022-08-26T13:45:04.059Z,29.24
2022-08-26T13:47:30.936Z,29.32
2022-08-26T13:49:57.658Z,29.27
2022-08-26T13:52:27.265Z,29.22
2022-08-26T13:54:57.635Z,29.24
2022-08-26T13:57:25.137Z,29.24
2022-08-26T13:59:54.069Z,29.23
2022-08-26T14:02:20.768Z,29.25
2022-08-26T14:04:47.465Z,29.20
2022-08-26T14:07:14.564Z,29.21
2022-08-26T14:09:41.187Z,29.22
2022-08-26T14:12:08.007Z,29.20
2022-08-26T14:14:34.736Z,29.20
2022-08-26T14:17:01.656Z,29.22
2022-08-26T14:19:30.187Z,29.21
2022-08-26T14:22:01.213Z,29.19
2022-08-26T14:24:31.449Z,29.16
2022-08-26T14:26:58.710Z,29.12
2022-08-26T14:29:25.416Z,29.11
2022-08-26T14:31:52.272Z,29.12
2022-08-26T14:34:19.007Z,29.10
2022-08-26T14:36:45.664Z,29.10
2022-08-26T14:39:13.825Z,29.02
2022-08-26T14:41:55.031Z,29.01
2022-08-26T14:44:26.091Z,28.92
2022-08-26T14:46:53.510Z,28.79
2022-08-26T14:49:21.969Z,28.72
2022-08-26T14:51:48.871Z,28.62
2022-08-26T14:54:17.651Z,28.58
2022-08-26T14:57:04.960Z,28.58
2022-08-26T14:59:41.295Z,28.50
2022-08-26T15:02:13.927Z,28.49
2022-08-26T15:04:56.391Z,28.51
2022-08-26T15:07:23.913Z,28.44
2022-08-26T15:09:53.837Z,28.44
2022-08-26T15:12:23.366Z,28.30
2022-08-26T15:16:32.304Z,28.08
2022-08-26T15:19:00.287Z,27.91
2022-08-26T15:21:27.247Z,27.79
2022-08-26T15:23:54.591Z,27.63
2022-08-26T15:26:22.456Z,27.51
2022-08-26T15:28:50.342Z,27.40
2022-08-26T15:31:17.539Z,27.26
2022-08-26T15:33:44.288Z,27.15
2022-08-26T15:36:11.695Z,27.10
2022-08-26T15:38:43.243Z,27.01
2022-08-26T15:41:10.650Z,26.93
2022-08-26T15:43:37.981Z,26.94
2022-08-26T15:46:05.226Z,26.96
2022-08-26T15:48:32.075Z,26.95
2022-08-26T15:51:02.184Z,27.00
2022-08-26T15:53:31.558Z,27.05
2022-08-26T15:56:00.380Z,27.07
2022-08-26T15:58:28.660Z,27.05
2022-08-26T16:00:56.519Z,27.04
2022-08-26T16:03:23.776Z,27.10
2022-08-26T16:05:50.711Z,27.11
2022-08-26T16:08:17.533Z,27.12
2022-08-26T16:10:50.434Z,27.11
2022-08-26T16:13:19.202Z,27.11
2022-08-26T16:15:47.612Z,27.06
2022-08-26T16:18:15.788Z,27.00
2022-08-26T16:21:12.429Z,26.93
2022-08-26T16:23:40.103Z,26.82
2022-08-26T16:26:11.644Z,26.73
2022-08-26T16:28:38.979Z,26.61
2022-08-26T16:31:09.933Z,26.55
2022-08-26T16:33:37.925Z,26.45
2022-08-26T16:36:05.477Z,26.43
2022-08-26T16:38:32.136Z,26.36
2022-08-26T16:41:00.891Z,26.28
2022-08-26T16:43:28.073Z,26.16
2022-08-26T16:45:54.956Z,26.11
2022-08-26T16:48:21.684Z,26.03
2022-08-26T16:50:48.288Z,25.94
2022-08-26T16:56:01.959Z,25.74
2022-08-26T16:58:28.631Z,25.70
2022-08-26T17:00:56.529Z,25.64
2022-08-26T17:03:23.146Z,25.58
2022-08-26T17:05:49.975Z,25.50
2022-08-26T17:08:24.294Z,25.41
2022-08-26T17:10:56.453Z,25.36
2022-08-26T17:13:34.806Z,25.26
2022-08-26T17:17:35.918Z,25.17
2022-08-26T17:20:12.998Z,25.13
2022-08-26T17:22:42.169Z,25.01
2022-08-26T17:25:18.804Z,24.84
2022-08-26T17:27:46.325Z,24.59
2022-08-26T17:30:13.901Z,24.38
2022-08-26T17:32:42.429Z,24.20
2022-08-26T17:35:10.401Z,23.99
2022-08-26T17:37:40.015Z,23.82
2022-08-26T17:40:09.554Z,23.68
2022-08-26T17:42:40.466Z,23.47
2022-08-26T17:45:08.791Z,23.30
2022-08-26T17:47:35.511Z,23.18
2022-08-26T17:50:03.900Z,23.03
2022-08-26T17:52:30.772Z,22.90
2022-08-26T17:54:57.524Z,22.83
2022-08-26T17:57:25.924Z,22.73
2022-08-26T17:59:53.884Z,22.62
2022-08-26T18:02:22.826Z,22.55
2022-08-26T18:04:49.465Z,22.46
2022-08-26T18:07:16.859Z,22.38
2022-08-26T18:09:44.020Z,22.29
2022-08-26T18:12:11.175Z,22.25
2022-08-26T18:14:38.623Z,22.17
2022-08-26T18:17:05.448Z,22.13
2022-08-26T18:19:32.090Z,22.03
2022-08-26T18:21:58.754Z,21.98
2022-08-26T18:24:25.604Z,21.81
2022-08-26T18:26:52.474Z,21.72
2022-08-26T18:29:20.157Z,21.58
2022-08-26T18:31:47.210Z,21.50
2022-08-26T18:34:15.561Z,21.40
2022-08-26T18:36:43.826Z,21.32
2022-08-26T18:39:12.424Z,21.21
2022-08-26T18:41:42.670Z,21.10
2022-08-26T18:44:13.406Z,21.03
2022-08-26T18:46:40.839Z,20.96
2022-08-26T18:49:08.480Z,20.89
2022-08-26T18:51:35.872Z,20.84
2022-08-26T18:54:05.497Z,20.78
2022-08-26T18:56:33.734Z,20.72
2022-08-26T18:59:01.035Z,20.68
2022-08-26T19:01:29.966Z,20.64
2022-08-26T19:03:59.519Z,20.59
2022-08-26T19:06:27.647Z,20.56
2022-08-26T19:08:54.480Z,20.48
2022-08-26T19:11:32.393Z,20.39
2022-08-26T19:14:06.684Z,20.30
2022-08-26T19:18:37.026Z,20.15
2022-08-26T19:21:03.968Z,20.10
2022-08-26T19:23:31.797Z,19.98
2022-08-26T19:25:59.448Z,19.88
2022-08-26T19:28:26.100Z,19.80
2022-08-26T19:30:53.423Z,19.73
2022-08-26T19:33:20.366Z,19.70
2022-08-26T19:35:47.131Z,19.67
2022-08-26T19:38:14.217Z,19.67
2022-08-26T19:40:42.716Z,19.63
2022-08-26T19:43:11.226Z,19.61
2022-08-26T19:45:38.790Z,19.61
2022-08-26T19:48:05.826Z,19.60
2022-08-26T19:50:34.323Z,19.57
2022-08-26T19:53:01.736Z,19.53
2022-08-26T19:55:28.559Z,19.49
2022-08-26T19:57:55.284Z,19.43
2022-08-26T20:00:25.847Z,19.34
2022-08-26T20:02:53.802Z,19.30
2022-08-26T20:05:22.786Z,19.21
2022-08-26T20:07:50.127Z,19.17
2022-08-26T20:10:21.217Z,19.09
2022-08-26T20:12:48.842Z,19.07
2022-08-26T20:15:16.241Z,19.06
2022-08-26T20:17:43.353Z,19.08
2022-08-26T20:20:36.772Z,19.06
2022-08-26T20:23:05.300Z,19.05
2022-08-26T20:25:32.833Z,19.06
2022-08-26T20:28:00.723Z,19.04
2022-08-26T20:30:30.195Z,18.97
2022-08-26T20:32:57.513Z,18.93
2022-08-26T20:35:24.305Z,18.90
2022-08-26T20:37:51.040Z,18.89
2022-08-26T20:40:17.796Z,18.92
2022-08-26T20:42:44.599Z,18.89
2022-08-26T20:45:11.614Z,18.90
2022-08-26T20:47:38.374Z,18.89
2022-08-26T20:50:05.542Z,18.90
2022-08-26T20:52:35.574Z,18.90
2022-08-26T20:55:02.607Z,18.95
2022-08-26T20:57:29.373Z,18.93
2022-08-26T20:59:56.735Z,18.94
2022-08-26T21:02:24.407Z,18.93
2022-08-26T21:04:51.089Z,18.90
2022-08-26T21:07:17.762Z,18.88
2022-08-26T21:09:44.576Z,18.90
2022-08-26T21:12:12.790Z,18.93
2022-08-26T21:14:39.501Z,18.94
2022-08-26T21:19:35.506Z,18.95
2022-08-26T21:22:02.143Z,18.96
2022-08-26T21:24:28.904Z,18.95
2022-08-26T21:26:55.546Z,18.97
2022-08-26T21:29:22.870Z,19.00
2022-08-26T21:31:49.690Z,18.97
2022-08-26T21:34:18.351Z,19.01
2022-08-26T21:36:46.808Z,19.00
2022-08-26T21:39:14.150Z,19.06
2022-08-26T21:41:42.773Z,19.10
2022-08-26T21:44:10.675Z,19.12
2022-08-26T21:46:37.559Z,19.16
2022-08-26T21:49:07.736Z,19.17
2022-08-26T21:51:37.626Z,19.21
2022-08-26T21:54:10.532Z,19.29
2022-08-26T21:56:41.295Z,19.32
2022-08-26T21:59:09.183Z,19.33
2022-08-26T22:01:36.140Z,19.32
2022-08-26T22:04:04.991Z,19.29
2022-08-26T22:06:33.861Z,19.29
2022-08-26T22:09:00.869Z,19.28
2022-08-26T22:11:28.504Z,19.27
2022-08-26T22:13:57.015Z,19.26
2022-08-26T22:16:24.596Z,19.21
2022-08-26T22:18:51.337Z,19.18
2022-08-26T22:21:21.515Z,19.15
2022-08-26T22:23:48.238Z,19.11
2022-08-26T22:26:25.532Z,19.10
2022-08-26T22:28:58.539Z,19.12
2022-08-26T22:31:37.555Z,19.13
2022-08-26T22:34:11.859Z,19.14
2022-08-26T22:36:43.248Z,19.15
2022-08-26T22:39:12.910Z,19.13
2022-08-26T22:41:40.262Z,19.10
2022-08-26T22:44:07.614Z,19.08
2022-08-26T22:46:36.841Z,19.05
2022-08-26T22:49:04.927Z,19.01
2022-08-26T22:51:32.091Z,19.02
2022-08-26T22:53:58.866Z,19.02
2022-08-26T22:56:25.520Z,18.98
2022-08-26T22:58:52.379Z,18.90
2022-08-26T23:01:19.170Z,18.78
2022-08-26T23:03:46.119Z,18.70
2022-08-26T23:06:12.928Z,18.55
2022-08-26T23:08:40.857Z,18.37
2022-08-26T23:11:12.098Z,18.20
2022-08-26T23:13:39.249Z,18.10
2022-08-26T23:16:09.351Z,18.00
2022-08-26T23:20:32.551Z,17.89
2022-08-26T23:22:59.915Z,17.82
2022-08-26T23:25:27.064Z,17.77
2022-08-26T23:27:53.698Z,17.76
2022-08-26T23:30:26.941Z,17.74
2022-08-26T23:32:53.939Z,17.70
2022-08-26T23:35:21.820Z,17.67
2022-08-26T23:37:52.553Z,17.65
2022-08-26T23:40:34.456Z,17.57
2022-08-26T23:43:04.795Z,17.56
2022-08-26T23:45:32.316Z,17.51
2022-08-26T23:47:59.646Z,17.47
2022-08-26T23:50:47.912Z,17.45
2022-08-26T23:53:20.128Z,17.44
2022-08-26T23:55:48.993Z,17.42
2022-08-26T23:58:17.464Z,17.31
